KCBF/CBF METAR and TAF weather

Enter ICAO airport designator
Station Type Date Time Source
KCBF METAR 2021/07/24 21:15 UTC NOAA

KCBF 242115Z AUTO 01007KT 10SM CLR 31/24 A2995 RMK AO2


Station Type Date Time Source
KCBF Decoded METAR 2021/07/24 21:15 UTC NOAA

Council Bluffs, IA, United States (KCBF) 41-16N 095-46W
Jul 24, 2021 - 05:15 PM EDT / 2021.07.24 2115 UTC
Wind: from the N (010 degrees) at 8 MPH (7 KT):0
Visibility: 10 mile(s):0
Sky conditions: clear
Temperature: 87 F (31 C)
Heat index: 95.7 F (35.4 C):1
Dew Point: 75 F (24 C)
Relative Humidity: 66%
Pressure (altimeter): 29.95 in. Hg (1014 hPa)
ob: KCBF 242115Z AUTO 01007KT 10SM CLR 31/24 A2995 RMK AO2
cycle: 21

Station Type Date Time Source
KCBF TAF UTC NOAA

Error!

Example: see airport list